sensor_id;sensor_type;location;lat;lon;timestamp;P1;durP1;ratioP1;P2;durP2;ratioP2
41687;SDS011;27371;42.686;23.362;2023-08-30T00:03:11;10.18;;;6.70;;
41687;SDS011;27371;42.686;23.362;2023-08-30T00:05:40;11.32;;;6.82;;
41687;SDS011;27371;42.686;23.362;2023-08-30T00:08:07;11.38;;;6.32;;
41687;SDS011;27371;42.686;23.362;2023-08-30T00:10:33;11.73;;;6.25;;
41687;SDS011;27371;42.686;23.362;2023-08-30T00:12:58;10.38;;;5.65;;
41687;SDS011;27371;42.686;23.362;2023-08-30T00:15:24;8.10;;;5.40;;
41687;SDS011;27371;42.686;23.362;2023-08-30T00:17:50;7.65;;;5.80;;
41687;SDS011;27371;42.686;23.362;2023-08-30T00:20:19;9.32;;;5.53;;
41687;SDS011;27371;42.686;23.362;2023-08-30T00:22:45;6.50;;;5.10;;
41687;SDS011;27371;42.686;23.362;2023-08-30T00:25:10;9.48;;;5.38;;
41687;SDS011;27371;42.686;23.362;2023-08-30T00:27:36;7.20;;;5.32;;
41687;SDS011;27371;42.686;23.362;2023-08-30T00:30:01;10.00;;;5.30;;
41687;SDS011;27371;42.686;23.362;2023-08-30T00:32:27;9.57;;;5.78;;
41687;SDS011;27371;42.686;23.362;2023-08-30T00:34:53;6.10;;;5.03;;
41687;SDS011;27371;42.686;23.362;2023-08-30T00:37:18;7.95;;;5.07;;
41687;SDS011;27371;42.686;23.362;2023-08-30T00:39:44;7.53;;;5.00;;
41687;SDS011;27371;42.686;23.362;2023-08-30T00:42:09;8.75;;;4.85;;
41687;SDS011;27371;42.686;23.362;2023-08-30T00:44:35;12.38;;;5.07;;
41687;SDS011;27371;42.686;23.362;2023-08-30T00:47:01;7.57;;;5.38;;
41687;SDS011;27371;42.686;23.362;2023-08-30T00:49:30;9.32;;;5.50;;
41687;SDS011;27371;42.686;23.362;2023-08-30T00:51:56;5.18;;;4.43;;
41687;SDS011;27371;42.686;23.362;2023-08-30T00:54:23;7.65;;;5.30;;
41687;SDS011;27371;42.686;23.362;2023-08-30T00:56:49;7.38;;;4.63;;
41687;SDS011;27371;42.686;23.362;2023-08-30T00:59:15;6.60;;;5.07;;
41687;SDS011;27371;42.686;23.362;2023-08-30T01:01:41;6.97;;;4.60;;
41687;SDS011;27371;42.686;23.362;2023-08-30T01:04:07;6.53;;;5.03;;
41687;SDS011;27371;42.686;23.362;2023-08-30T01:06:34;9.32;;;5.00;;
41687;SDS011;27371;42.686;23.362;2023-08-30T01:09:00;5.90;;;4.47;;
41687;SDS011;27371;42.686;23.362;2023-08-30T01:14:22;7.97;;;4.68;;
41687;SDS011;27371;42.686;23.362;2023-08-30T01:16:52;7.63;;;4.55;;
41687;SDS011;27371;42.686;23.362;2023-08-30T01:24:45;9.35;;;4.80;;
41687;SDS011;27371;42.686;23.362;2023-08-30T01:27:20;7.18;;;4.88;;
41687;SDS011;27371;42.686;23.362;2023-08-30T01:29:48;7.93;;;4.40;;
41687;SDS011;27371;42.686;23.362;2023-08-30T01:32:15;8.07;;;4.45;;
41687;SDS011;27371;42.686;23.362;2023-08-30T01:34:41;8.63;;;4.90;;
41687;SDS011;27371;42.686;23.362;2023-08-30T01:37:10;7.90;;;4.75;;
41687;SDS011;27371;42.686;23.362;2023-08-30T01:39:39;8.52;;;4.65;;
41687;SDS011;27371;42.686;23.362;2023-08-30T01:42:07;5.88;;;4.40;;
41687;SDS011;27371;42.686;23.362;2023-08-30T01:44:34;7.80;;;5.05;;
41687;SDS011;27371;42.686;23.362;2023-08-30T01:47:00;10.75;;;4.57;;
41687;SDS011;27371;42.686;23.362;2023-08-30T01:49:28;7.00;;;4.82;;
41687;SDS011;27371;42.686;23.362;2023-08-30T01:51:57;6.65;;;4.28;;
41687;SDS011;27371;42.686;23.362;2023-08-30T01:54:23;7.82;;;4.80;;
41687;SDS011;27371;42.686;23.362;2023-08-30T01:56:49;11.55;;;4.90;;
41687;SDS011;27371;42.686;23.362;2023-08-30T01:59:15;8.50;;;5.53;;
41687;SDS011;27371;42.686;23.362;2023-08-30T02:01:40;7.20;;;4.38;;
41687;SDS011;27371;42.686;23.362;2023-08-30T02:04:05;6.55;;;4.40;;
41687;SDS011;27371;42.686;23.362;2023-08-30T02:06:32;6.85;;;4.68;;
41687;SDS011;27371;42.686;23.362;2023-08-30T02:09:09;10.07;;;5.03;;
41687;SDS011;27371;42.686;23.362;2023-08-30T02:11:40;7.72;;;4.53;;
41687;SDS011;27371;42.686;23.362;2023-08-30T02:14:09;8.85;;;4.72;;
41687;SDS011;27371;42.686;23.362;2023-08-30T02:16:37;6.72;;;4.55;;
41687;SDS011;27371;42.686;23.362;2023-08-30T02:19:05;6.30;;;4.80;;
41687;SDS011;27371;42.686;23.362;2023-08-30T02:21:32;7.20;;;4.68;;
41687;SDS011;27371;42.686;23.362;2023-08-30T02:23:58;10.82;;;5.18;;
41687;SDS011;27371;42.686;23.362;2023-08-30T02:26:24;7.38;;;4.97;;
41687;SDS011;27371;42.686;23.362;2023-08-30T02:28:49;9.18;;;5.72;;
41687;SDS011;27371;42.686;23.362;2023-08-30T02:31:14;8.18;;;4.45;;
41687;SDS011;27371;42.686;23.362;2023-08-30T02:33:40;9.38;;;5.53;;
41687;SDS011;27371;42.686;23.362;2023-08-30T02:36:05;7.65;;;4.93;;
41687;SDS011;27371;42.686;23.362;2023-08-30T02:38:31;9.25;;;4.80;;
41687;SDS011;27371;42.686;23.362;2023-08-30T02:40:56;7.80;;;5.00;;
41687;SDS011;27371;42.686;23.362;2023-08-30T02:43:22;6.32;;;4.90;;
41687;SDS011;27371;42.686;23.362;2023-08-30T02:45:48;8.38;;;5.28;;
41687;SDS011;27371;42.686;23.362;2023-08-30T02:48:13;10.75;;;5.03;;
41687;SDS011;27371;42.686;23.362;2023-08-30T02:50:40;10.95;;;5.13;;
41687;SDS011;27371;42.686;23.362;2023-08-30T02:53:05;7.47;;;4.78;;
41687;SDS011;27371;42.686;23.362;2023-08-30T02:55:33;9.15;;;5.10;;
41687;SDS011;27371;42.686;23.362;2023-08-30T02:57:59;8.23;;;5.45;;
41687;SDS011;27371;42.686;23.362;2023-08-30T03:00:25;8.70;;;4.82;;
41687;SDS011;27371;42.686;23.362;2023-08-30T03:02:51;9.68;;;5.38;;
41687;SDS011;27371;42.686;23.362;2023-08-30T03:05:17;10.80;;;5.45;;
41687;SDS011;27371;42.686;23.362;2023-08-30T03:07:42;6.95;;;5.00;;
41687;SDS011;27371;42.686;23.362;2023-08-30T03:10:08;7.22;;;5.15;;
41687;SDS011;27371;42.686;23.362;2023-08-30T03:12:34;7.20;;;5.38;;
41687;SDS011;27371;42.686;23.362;2023-08-30T03:15:00;9.45;;;5.35;;
41687;SDS011;27371;42.686;23.362;2023-08-30T03:17:25;8.38;;;5.05;;
41687;SDS011;27371;42.686;23.362;2023-08-30T03:19:51;8.65;;;5.35;;
41687;SDS011;27371;42.686;23.362;2023-08-30T03:22:18;9.88;;;5.75;;
41687;SDS011;27371;42.686;23.362;2023-08-30T03:24:44;10.88;;;5.80;;
41687;SDS011;27371;42.686;23.362;2023-08-30T03:27:09;10.40;;;5.50;;
41687;SDS011;27371;42.686;23.362;2023-08-30T03:29:35;8.52;;;5.50;;
41687;SDS011;27371;42.686;23.362;2023-08-30T03:32:00;7.88;;;5.75;;
41687;SDS011;27371;42.686;23.362;2023-08-30T03:34:26;10.90;;;7.20;;
41687;SDS011;27371;42.686;23.362;2023-08-30T03:36:51;10.90;;;7.85;;
41687;SDS011;27371;42.686;23.362;2023-08-30T03:39:22;12.32;;;7.13;;
41687;SDS011;27371;42.686;23.362;2023-08-30T03:41:49;10.45;;;6.43;;
41687;SDS011;27371;42.686;23.362;2023-08-30T03:44:14;12.80;;;7.13;;
41687;SDS011;27371;42.686;23.362;2023-08-30T03:46:40;12.38;;;8.77;;
41687;SDS011;27371;42.686;23.362;2023-08-30T03:49:06;15.68;;;9.85;;
41687;SDS011;27371;42.686;23.362;2023-08-30T03:51:31;14.48;;;11.07;;
41687;SDS011;27371;42.686;23.362;2023-08-30T03:53:57;14.82;;;10.30;;
41687;SDS011;27371;42.686;23.362;2023-08-30T03:56:22;12.80;;;10.18;;
41687;SDS011;27371;42.686;23.362;2023-08-30T03:58:48;12.65;;;10.10;;
41687;SDS011;27371;42.686;23.362;2023-08-30T04:01:14;17.00;;;10.13;;
41687;SDS011;27371;42.686;23.362;2023-08-30T04:03:39;15.07;;;9.63;;
41687;SDS011;27371;42.686;23.362;2023-08-30T04:06:06;14.55;;;9.55;;
41687;SDS011;27371;42.686;23.362;2023-08-30T04:08:31;17.67;;;9.40;;
41687;SDS011;27371;42.686;23.362;2023-08-30T04:10:57;17.45;;;10.05;;
41687;SDS011;27371;42.686;23.362;2023-08-30T04:13:22;14.07;;;9.77;;
41687;SDS011;27371;42.686;23.362;2023-08-30T04:15:48;12.85;;;9.38;;
41687;SDS011;27371;42.686;23.362;2023-08-30T04:18:14;14.85;;;9.25;;
41687;SDS011;27371;42.686;23.362;2023-08-30T04:20:43;12.50;;;10.00;;
41687;SDS011;27371;42.686;23.362;2023-08-30T04:23:12;16.05;;;9.75;;
41687;SDS011;27371;42.686;23.362;2023-08-30T04:25:38;13.10;;;9.65;;
41687;SDS011;27371;42.686;23.362;2023-08-30T04:28:04;12.80;;;9.18;;
41687;SDS011;27371;42.686;23.362;2023-08-30T04:30:29;14.55;;;9.20;;
41687;SDS011;27371;42.686;23.362;2023-08-30T04:32:55;12.55;;;8.20;;
41687;SDS011;27371;42.686;23.362;2023-08-30T04:35:21;9.63;;;7.60;;
41687;SDS011;27371;42.686;23.362;2023-08-30T04:37:46;13.30;;;8.07;;
41687;SDS011;27371;42.686;23.362;2023-08-30T04:40:13;14.43;;;8.23;;
41687;SDS011;27371;42.686;23.362;2023-08-30T04:42:39;12.05;;;8.90;;
41687;SDS011;27371;42.686;23.362;2023-08-30T04:45:05;11.77;;;7.78;;
41687;SDS011;27371;42.686;23.362;2023-08-30T04:47:31;12.60;;;8.20;;
41687;SDS011;27371;42.686;23.362;2023-08-30T04:49:57;12.88;;;7.38;;
41687;SDS011;27371;42.686;23.362;2023-08-30T04:52:23;11.35;;;8.32;;
41687;SDS011;27371;42.686;23.362;2023-08-30T04:54:49;11.90;;;7.40;;
41687;SDS011;27371;42.686;23.362;2023-08-30T04:57:14;9.98;;;7.15;;
41687;SDS011;27371;42.686;23.362;2023-08-30T04:59:41;15.55;;;7.63;;
41687;SDS011;27371;42.686;23.362;2023-08-30T05:02:07;11.82;;;7.50;;
41687;SDS011;27371;42.686;23.362;2023-08-30T05:04:33;12.05;;;7.18;;
41687;SDS011;27371;42.686;23.362;2023-08-30T05:06:58;10.82;;;7.32;;
41687;SDS011;27371;42.686;23.362;2023-08-30T05:09:24;14.57;;;7.22;;
41687;SDS011;27371;42.686;23.362;2023-08-30T05:11:53;14.38;;;7.38;;
41687;SDS011;27371;42.686;23.362;2023-08-30T05:14:19;9.27;;;6.72;;
41687;SDS011;27371;42.686;23.362;2023-08-30T05:16:45;16.38;;;8.00;;
41687;SDS011;27371;42.686;23.362;2023-08-30T05:19:11;11.70;;;7.15;;
41687;SDS011;27371;42.686;23.362;2023-08-30T05:21:36;13.20;;;6.93;;
41687;SDS011;27371;42.686;23.362;2023-08-30T05:24:02;14.73;;;8.43;;
41687;SDS011;27371;42.686;23.362;2023-08-30T05:26:28;14.88;;;7.80;;
41687;SDS011;27371;42.686;23.362;2023-08-30T05:28:54;17.42;;;8.00;;
41687;SDS011;27371;42.686;23.362;2023-08-30T05:31:19;14.50;;;7.40;;
41687;SDS011;27371;42.686;23.362;2023-08-30T05:33:45;17.98;;;7.40;;
41687;SDS011;27371;42.686;23.362;2023-08-30T05:36:10;8.82;;;5.82;;
41687;SDS011;27371;42.686;23.362;2023-08-30T05:38:36;18.17;;;6.28;;
41687;SDS011;27371;42.686;23.362;2023-08-30T05:41:01;7.43;;;4.00;;
41687;SDS011;27371;42.686;23.362;2023-08-30T05:43:27;12.05;;;4.43;;
41687;SDS011;27371;42.686;23.362;2023-08-30T05:45:52;11.05;;;4.35;;
41687;SDS011;27371;42.686;23.362;2023-08-30T05:48:18;7.70;;;3.28;;
41687;SDS011;27371;42.686;23.362;2023-08-30T05:50:43;8.88;;;3.33;;
41687;SDS011;27371;42.686;23.362;2023-08-30T05:53:10;10.48;;;3.33;;
41687;SDS011;27371;42.686;23.362;2023-08-30T05:55:35;6.45;;;2.92;;
41687;SDS011;27371;42.686;23.362;2023-08-30T05:58:02;7.57;;;2.70;;
41687;SDS011;27371;42.686;23.362;2023-08-30T06:00:31;7.65;;;3.38;;
41687;SDS011;27371;42.686;23.362;2023-08-30T06:02:56;8.48;;;3.53;;
41687;SDS011;27371;42.686;23.362;2023-08-30T06:05:21;6.50;;;2.95;;
41687;SDS011;27371;42.686;23.362;2023-08-30T06:07:47;11.15;;;3.20;;
41687;SDS011;27371;42.686;23.362;2023-08-30T06:10:12;8.68;;;3.10;;
41687;SDS011;27371;42.686;23.362;2023-08-30T06:12:38;6.50;;;2.92;;
41687;SDS011;27371;42.686;23.362;2023-08-30T06:15:04;8.25;;;3.40;;
41687;SDS011;27371;42.686;23.362;2023-08-30T06:17:30;6.05;;;3.60;;
41687;SDS011;27371;42.686;23.362;2023-08-30T06:19:55;8.30;;;2.92;;
41687;SDS011;27371;42.686;23.362;2023-08-30T06:22:21;5.65;;;3.05;;
41687;SDS011;27371;42.686;23.362;2023-08-30T06:24:46;7.43;;;3.30;;
41687;SDS011;27371;42.686;23.362;2023-08-30T06:27:12;8.20;;;3.88;;
41687;SDS011;27371;42.686;23.362;2023-08-30T06:29:37;9.23;;;3.60;;
41687;SDS011;27371;42.686;23.362;2023-08-30T06:32:03;7.10;;;3.03;;
41687;SDS011;27371;42.686;23.362;2023-08-30T06:34:29;7.93;;;3.35;;
41687;SDS011;27371;42.686;23.362;2023-08-30T06:36:55;8.57;;;3.45;;
41687;SDS011;27371;42.686;23.362;2023-08-30T06:39:20;7.40;;;3.40;;
41687;SDS011;27371;42.686;23.362;2023-08-30T06:41:46;7.82;;;4.40;;
41687;SDS011;27371;42.686;23.362;2023-08-30T06:44:11;6.55;;;4.22;;
41687;SDS011;27371;42.686;23.362;2023-08-30T06:46:37;8.20;;;4.32;;
41687;SDS011;27371;42.686;23.362;2023-08-30T06:49:03;11.70;;;4.63;;
41687;SDS011;27371;42.686;23.362;2023-08-30T06:51:29;10.88;;;4.43;;
41687;SDS011;27371;42.686;23.362;2023-08-30T06:53:54;9.20;;;4.00;;
41687;SDS011;27371;42.686;23.362;2023-08-30T06:56:22;7.25;;;3.88;;
41687;SDS011;27371;42.686;23.362;2023-08-30T06:58:47;7.40;;;3.47;;
41687;SDS011;27371;42.686;23.362;2023-08-30T07:01:13;9.52;;;4.35;;
41687;SDS011;27371;42.686;23.362;2023-08-30T07:03:38;7.55;;;4.15;;
41687;SDS011;27371;42.686;23.362;2023-08-30T07:06:05;7.70;;;4.50;;
41687;SDS011;27371;42.686;23.362;2023-08-30T07:08:30;9.20;;;4.60;;
41687;SDS011;27371;42.686;23.362;2023-08-30T07:10:57;9.73;;;4.45;;
41687;SDS011;27371;42.686;23.362;2023-08-30T07:13:23;6.20;;;3.55;;
41687;SDS011;27371;42.686;23.362;2023-08-30T07:15:48;7.70;;;3.45;;
41687;SDS011;27371;42.686;23.362;2023-08-30T07:18:14;9.95;;;4.43;;
41687;SDS011;27371;42.686;23.362;2023-08-30T07:20:39;10.15;;;4.40;;
41687;SDS011;27371;42.686;23.362;2023-08-30T07:23:05;8.75;;;4.65;;
41687;SDS011;27371;42.686;23.362;2023-08-30T07:25:30;12.13;;;5.03;;
41687;SDS011;27371;42.686;23.362;2023-08-30T07:27:57;11.68;;;4.28;;
41687;SDS011;27371;42.686;23.362;2023-08-30T07:30:23;9.85;;;4.70;;
41687;SDS011;27371;42.686;23.362;2023-08-30T07:32:49;11.35;;;4.50;;
41687;SDS011;27371;42.686;23.362;2023-08-30T07:35:14;11.88;;;5.40;;
41687;SDS011;27371;42.686;23.362;2023-08-30T07:37:40;11.68;;;5.18;;
41687;SDS011;27371;42.686;23.362;2023-08-30T07:40:05;10.68;;;5.35;;
41687;SDS011;27371;42.686;23.362;2023-08-30T07:42:32;10.07;;;5.22;;
41687;SDS011;27371;42.686;23.362;2023-08-30T07:44:57;8.73;;;4.15;;
41687;SDS011;27371;42.686;23.362;2023-08-30T07:47:23;10.85;;;4.45;;
41687;SDS011;27371;42.686;23.362;2023-08-30T07:49:48;10.40;;;4.40;;
41687;SDS011;27371;42.686;23.362;2023-08-30T07:52:14;8.30;;;4.25;;
41687;SDS011;27371;42.686;23.362;2023-08-30T07:54:39;10.38;;;4.32;;
41687;SDS011;27371;42.686;23.362;2023-08-30T07:57:06;8.50;;;3.60;;
41687;SDS011;27371;42.686;23.362;2023-08-30T07:59:33;7.45;;;3.70;;
41687;SDS011;27371;42.686;23.362;2023-08-30T08:01:59;9.38;;;4.28;;
41687;SDS011;27371;42.686;23.362;2023-08-30T08:04:25;8.43;;;3.92;;
41687;SDS011;27371;42.686;23.362;2023-08-30T08:06:50;11.15;;;4.07;;
41687;SDS011;27371;42.686;23.362;2023-08-30T08:09:16;13.93;;;4.38;;
41687;SDS011;27371;42.686;23.362;2023-08-30T08:11:42;8.05;;;3.42;;
41687;SDS011;27371;42.686;23.362;2023-08-30T08:14:11;8.27;;;3.70;;
41687;SDS011;27371;42.686;23.362;2023-08-30T08:16:37;6.93;;;3.53;;
41687;SDS011;27371;42.686;23.362;2023-08-30T08:19:03;7.78;;;3.30;;
41687;SDS011;27371;42.686;23.362;2023-08-30T08:21:29;6.07;;;2.70;;
41687;SDS011;27371;42.686;23.362;2023-08-30T08:26:38;12.97;;;3.53;;
41687;SDS011;27371;42.686;23.362;2023-08-30T08:29:04;7.75;;;2.38;;
41687;SDS011;27371;42.686;23.362;2023-08-30T08:31:30;6.78;;;2.50;;
41687;SDS011;27371;42.686;23.362;2023-08-30T08:34:06;8.68;;;3.03;;
41687;SDS011;27371;42.686;23.362;2023-08-30T08:36:36;7.55;;;2.65;;
41687;SDS011;27371;42.686;23.362;2023-08-30T08:39:03;8.68;;;2.92;;
41687;SDS011;27371;42.686;23.362;2023-08-30T08:41:35;5.60;;;2.40;;
41687;SDS011;27371;42.686;23.362;2023-08-30T08:44:05;8.02;;;2.45;;
41687;SDS011;27371;42.686;23.362;2023-08-30T08:46:32;6.40;;;2.83;;
41687;SDS011;27371;42.686;23.362;2023-08-30T08:49:02;4.43;;;2.33;;
41687;SDS011;27371;42.686;23.362;2023-08-30T08:51:40;6.10;;;2.70;;
41687;SDS011;27371;42.686;23.362;2023-08-30T08:54:07;4.32;;;2.13;;
41687;SDS011;27371;42.686;23.362;2023-08-30T08:56:34;8.25;;;2.67;;
41687;SDS011;27371;42.686;23.362;2023-08-30T08:59:00;6.72;;;2.70;;
41687;SDS011;27371;42.686;23.362;2023-08-30T09:01:27;7.25;;;3.17;;
41687;SDS011;27371;42.686;23.362;2023-08-30T09:03:53;5.20;;;2.30;;
41687;SDS011;27371;42.686;23.362;2023-08-30T09:06:19;6.10;;;2.40;;
41687;SDS011;27371;42.686;23.362;2023-08-30T09:08:45;6.40;;;2.83;;
41687;SDS011;27371;42.686;23.362;2023-08-30T09:11:11;7.75;;;2.88;;
41687;SDS011;27371;42.686;23.362;2023-08-30T09:13:36;10.93;;;2.85;;
41687;SDS011;27371;42.686;23.362;2023-08-30T09:16:02;7.43;;;2.33;;
41687;SDS011;27371;42.686;23.362;2023-08-30T09:18:27;6.55;;;3.00;;
41687;SDS011;27371;42.686;23.362;2023-08-30T09:21:05;5.43;;;2.67;;
41687;SDS011;27371;42.686;23.362;2023-08-30T09:23:31;5.97;;;2.80;;
41687;SDS011;27371;42.686;23.362;2023-08-30T09:25:58;5.40;;;2.40;;
41687;SDS011;27371;42.686;23.362;2023-08-30T09:28:24;8.75;;;2.95;;
41687;SDS011;27371;42.686;23.362;2023-08-30T09:30:50;6.32;;;2.78;;
41687;SDS011;27371;42.686;23.362;2023-08-30T09:33:20;7.72;;;2.45;;
41687;SDS011;27371;42.686;23.362;2023-08-30T09:35:46;8.55;;;2.90;;
41687;SDS011;27371;42.686;23.362;2023-08-30T09:38:21;8.32;;;3.17;;
41687;SDS011;27371;42.686;23.362;2023-08-30T09:40:47;8.77;;;3.17;;
41687;SDS011;27371;42.686;23.362;2023-08-30T09:43:12;6.05;;;2.67;;
41687;SDS011;27371;42.686;23.362;2023-08-30T09:45:39;6.60;;;2.75;;
41687;SDS011;27371;42.686;23.362;2023-08-30T09:48:06;14.10;;;3.15;;
41687;SDS011;27371;42.686;23.362;2023-08-30T09:50:35;6.07;;;3.15;;
41687;SDS011;27371;42.686;23.362;2023-08-30T09:53:08;11.20;;;4.40;;
41687;SDS011;27371;42.686;23.362;2023-08-30T09:55:37;5.40;;;2.83;;
41687;SDS011;27371;42.686;23.362;2023-08-30T09:58:03;10.73;;;3.03;;
41687;SDS011;27371;42.686;23.362;2023-08-30T10:00:29;6.60;;;3.00;;
41687;SDS011;27371;42.686;23.362;2023-08-30T10:02:59;7.30;;;2.90;;
41687;SDS011;27371;42.686;23.362;2023-08-30T10:05:29;7.03;;;3.33;;
41687;SDS011;27371;42.686;23.362;2023-08-30T10:07:54;8.95;;;3.03;;
41687;SDS011;27371;42.686;23.362;2023-08-30T10:10:22;5.40;;;2.88;;
41687;SDS011;27371;42.686;23.362;2023-08-30T10:12:49;6.00;;;2.78;;
41687;SDS011;27371;42.686;23.362;2023-08-30T10:15:14;4.55;;;2.75;;
41687;SDS011;27371;42.686;23.362;2023-08-30T10:17:41;5.28;;;2.80;;
41687;SDS011;27371;42.686;23.362;2023-08-30T10:20:10;4.68;;;3.00;;
41687;SDS011;27371;42.686;23.362;2023-08-30T10:22:37;6.95;;;3.03;;
41687;SDS011;27371;42.686;23.362;2023-08-30T10:25:15;10.77;;;3.20;;
41687;SDS011;27371;42.686;23.362;2023-08-30T10:27:48;6.35;;;3.03;;
41687;SDS011;27371;42.686;23.362;2023-08-30T10:30:15;9.82;;;4.18;;
41687;SDS011;27371;42.686;23.362;2023-08-30T10:32:42;7.95;;;4.43;;
41687;SDS011;27371;42.686;23.362;2023-08-30T10:35:12;9.80;;;5.32;;
41687;SDS011;27371;42.686;23.362;2023-08-30T10:37:53;11.85;;;3.55;;
41687;SDS011;27371;42.686;23.362;2023-08-30T10:40:19;7.05;;;3.60;;
41687;SDS011;27371;42.686;23.362;2023-08-30T10:42:45;5.97;;;3.17;;
41687;SDS011;27371;42.686;23.362;2023-08-30T10:45:10;6.00;;;3.40;;
41687;SDS011;27371;42.686;23.362;2023-08-30T10:47:36;7.68;;;3.28;;
41687;SDS011;27371;42.686;23.362;2023-08-30T10:50:05;8.90;;;3.58;;
41687;SDS011;27371;42.686;23.362;2023-08-30T10:52:32;8.85;;;3.85;;
41687;SDS011;27371;42.686;23.362;2023-08-30T10:55:05;6.05;;;3.05;;
41687;SDS011;27371;42.686;23.362;2023-08-30T10:57:41;6.70;;;3.30;;
41687;SDS011;27371;42.686;23.362;2023-08-30T11:00:18;9.05;;;3.60;;
41687;SDS011;27371;42.686;23.362;2023-08-30T11:02:46;9.25;;;3.30;;
41687;SDS011;27371;42.686;23.362;2023-08-30T11:05:17;5.78;;;2.95;;
41687;SDS011;27371;42.686;23.362;2023-08-30T11:07:44;7.35;;;2.95;;
41687;SDS011;27371;42.686;23.362;2023-08-30T11:10:10;9.75;;;3.10;;
41687;SDS011;27371;42.686;23.362;2023-08-30T11:12:36;7.47;;;3.28;;
41687;SDS011;27371;42.686;23.362;2023-08-30T11:15:02;5.82;;;3.33;;
41687;SDS011;27371;42.686;23.362;2023-08-30T11:17:29;7.28;;;2.88;;
41687;SDS011;27371;42.686;23.362;2023-08-30T11:19:57;5.20;;;3.10;;
41687;SDS011;27371;42.686;23.362;2023-08-30T11:22:32;9.82;;;3.47;;
41687;SDS011;27371;42.686;23.362;2023-08-30T11:25:00;5.97;;;3.08;;
41687;SDS011;27371;42.686;23.362;2023-08-30T11:27:25;5.43;;;3.42;;
41687;SDS011;27371;42.686;23.362;2023-08-30T11:29:51;6.15;;;3.42;;
41687;SDS011;27371;42.686;23.362;2023-08-30T11:32:16;5.53;;;3.30;;
41687;SDS011;27371;42.686;23.362;2023-08-30T11:34:42;10.55;;;3.80;;
41687;SDS011;27371;42.686;23.362;2023-08-30T11:37:07;5.78;;;3.28;;
41687;SDS011;27371;42.686;23.362;2023-08-30T11:39:33;7.90;;;3.53;;
41687;SDS011;27371;42.686;23.362;2023-08-30T11:41:59;6.63;;;3.78;;
41687;SDS011;27371;42.686;23.362;2023-08-30T11:44:24;7.13;;;3.85;;
41687;SDS011;27371;42.686;23.362;2023-08-30T11:46:59;5.82;;;3.60;;
41687;SDS011;27371;42.686;23.362;2023-08-30T11:49:26;5.40;;;3.65;;
41687;SDS011;27371;42.686;23.362;2023-08-30T11:51:53;8.10;;;3.42;;
41687;SDS011;27371;42.686;23.362;2023-08-30T11:54:21;7.60;;;3.50;;
41687;SDS011;27371;42.686;23.362;2023-08-30T11:56:48;9.98;;;3.67;;
41687;SDS011;27371;42.686;23.362;2023-08-30T11:59:20;8.23;;;3.63;;
41687;SDS011;27371;42.686;23.362;2023-08-30T12:01:47;11.93;;;3.97;;
41687;SDS011;27371;42.686;23.362;2023-08-30T12:04:18;7.22;;;3.40;;
41687;SDS011;27371;42.686;23.362;2023-08-30T12:06:50;5.55;;;3.50;;
41687;SDS011;27371;42.686;23.362;2023-08-30T12:09:17;5.40;;;3.38;;
41687;SDS011;27371;42.686;23.362;2023-08-30T12:11:42;6.75;;;3.88;;
41687;SDS011;27371;42.686;23.362;2023-08-30T12:14:09;8.73;;;3.42;;
41687;SDS011;27371;42.686;23.362;2023-08-30T12:16:34;8.10;;;3.47;;
41687;SDS011;27371;42.686;23.362;2023-08-30T12:19:12;4.90;;;3.38;;
41687;SDS011;27371;42.686;23.362;2023-08-30T12:21:42;7.97;;;3.92;;
41687;SDS011;27371;42.686;23.362;2023-08-30T12:24:08;11.90;;;3.78;;
41687;SDS011;27371;42.686;23.362;2023-08-30T12:26:35;9.02;;;3.95;;
41687;SDS011;27371;42.686;23.362;2023-08-30T12:29:03;5.53;;;3.38;;
41687;SDS011;27371;42.686;23.362;2023-08-30T12:31:30;8.98;;;3.35;;
41687;SDS011;27371;42.686;23.362;2023-08-30T12:33:56;9.07;;;3.60;;
41687;SDS011;27371;42.686;23.362;2023-08-30T12:36:22;8.65;;;3.30;;
41687;SDS011;27371;42.686;23.362;2023-08-30T12:38:47;6.68;;;3.80;;
41687;SDS011;27371;42.686;23.362;2023-08-30T12:41:13;6.13;;;3.60;;
41687;SDS011;27371;42.686;23.362;2023-08-30T12:43:38;7.35;;;4.70;;
41687;SDS011;27371;42.686;23.362;2023-08-30T12:46:04;6.90;;;4.30;;
41687;SDS011;27371;42.686;23.362;2023-08-30T12:48:30;9.90;;;4.20;;
41687;SDS011;27371;42.686;23.362;2023-08-30T12:50:55;8.15;;;4.18;;
41687;SDS011;27371;42.686;23.362;2023-08-30T12:53:21;6.43;;;4.00;;
41687;SDS011;27371;42.686;23.362;2023-08-30T12:55:46;8.73;;;4.07;;
41687;SDS011;27371;42.686;23.362;2023-08-30T12:58:12;5.15;;;3.72;;
41687;SDS011;27371;42.686;23.362;2023-08-30T13:00:39;7.63;;;4.13;;
41687;SDS011;27371;42.686;23.362;2023-08-30T13:03:05;6.93;;;4.00;;
41687;SDS011;27371;42.686;23.362;2023-08-30T13:05:31;5.82;;;4.38;;
41687;SDS011;27371;42.686;23.362;2023-08-30T13:07:57;9.63;;;4.38;;
41687;SDS011;27371;42.686;23.362;2023-08-30T13:10:24;7.18;;;4.57;;
41687;SDS011;27371;42.686;23.362;2023-08-30T13:12:49;7.78;;;4.07;;
41687;SDS011;27371;42.686;23.362;2023-08-30T13:15:15;7.70;;;4.43;;
41687;SDS011;27371;42.686;23.362;2023-08-30T13:17:40;8.20;;;3.75;;
41687;SDS011;27371;42.686;23.362;2023-08-30T13:20:06;6.68;;;4.13;;
41687;SDS011;27371;42.686;23.362;2023-08-30T13:22:32;8.55;;;3.83;;
41687;SDS011;27371;42.686;23.362;2023-08-30T13:24:58;7.18;;;3.85;;
41687;SDS011;27371;42.686;23.362;2023-08-30T13:27:24;5.85;;;3.85;;
41687;SDS011;27371;42.686;23.362;2023-08-30T13:29:49;9.35;;;3.70;;
41687;SDS011;27371;42.686;23.362;2023-08-30T13:32:15;8.25;;;4.10;;
41687;SDS011;27371;42.686;23.362;2023-08-30T13:34:41;7.10;;;3.38;;
41687;SDS011;27371;42.686;23.362;2023-08-30T13:37:10;6.68;;;3.33;;
41687;SDS011;27371;42.686;23.362;2023-08-30T13:39:37;7.10;;;3.72;;
41687;SDS011;27371;42.686;23.362;2023-08-30T13:42:02;5.32;;;3.40;;
41687;SDS011;27371;42.686;23.362;2023-08-30T13:44:28;6.45;;;3.08;;
41687;SDS011;27371;42.686;23.362;2023-08-30T13:46:54;4.65;;;2.92;;
41687;SDS011;27371;42.686;23.362;2023-08-30T13:49:19;7.40;;;3.17;;
41687;SDS011;27371;42.686;23.362;2023-08-30T13:51:45;5.75;;;3.20;;
41687;SDS011;27371;42.686;23.362;2023-08-30T13:54:10;5.05;;;3.15;;
41687;SDS011;27371;42.686;23.362;2023-08-30T13:56:36;5.53;;;3.08;;
41687;SDS011;27371;42.686;23.362;2023-08-30T13:59:05;3.45;;;2.65;;
41687;SDS011;27371;42.686;23.362;2023-08-30T14:01:33;4.78;;;3.42;;
41687;SDS011;27371;42.686;23.362;2023-08-30T14:04:00;7.72;;;3.20;;
41687;SDS011;27371;42.686;23.362;2023-08-30T14:06:26;5.55;;;3.22;;
41687;SDS011;27371;42.686;23.362;2023-08-30T14:08:51;6.90;;;2.95;;
41687;SDS011;27371;42.686;23.362;2023-08-30T14:11:17;4.65;;;3.22;;
41687;SDS011;27371;42.686;23.362;2023-08-30T14:13:42;4.15;;;2.90;;
41687;SDS011;27371;42.686;23.362;2023-08-30T14:16:08;3.75;;;2.70;;
41687;SDS011;27371;42.686;23.362;2023-08-30T14:18:35;5.63;;;3.65;;
41687;SDS011;27371;42.686;23.362;2023-08-30T14:21:01;6.53;;;3.78;;
41687;SDS011;27371;42.686;23.362;2023-08-30T14:23:28;6.55;;;4.10;;
41687;SDS011;27371;42.686;23.362;2023-08-30T14:25:57;7.55;;;3.58;;
41687;SDS011;27371;42.686;23.362;2023-08-30T14:28:26;8.38;;;3.58;;
41687;SDS011;27371;42.686;23.362;2023-08-30T14:30:52;6.07;;;2.80;;
41687;SDS011;27371;42.686;23.362;2023-08-30T14:33:18;4.78;;;2.97;;
41687;SDS011;27371;42.686;23.362;2023-08-30T14:35:44;4.00;;;2.55;;
41687;SDS011;27371;42.686;23.362;2023-08-30T14:38:10;3.85;;;2.63;;
41687;SDS011;27371;42.686;23.362;2023-08-30T14:40:35;3.70;;;2.72;;